sensor_id;sensor_type;location;lat;lon;timestamp;P1;durP1;ratioP1;P2;durP2;ratioP2
7255;SDS011;3669;49.200;9.242;2023-07-31T00:00:52;4.30;;;1.83;;
7255;SDS011;3669;49.200;9.242;2023-07-31T00:03:19;2.83;;;1.90;;
7255;SDS011;3669;49.200;9.242;2023-07-31T00:05:46;2.78;;;1.90;;
7255;SDS011;3669;49.200;9.242;2023-07-31T00:08:13;4.15;;;1.83;;
7255;SDS011;3669;49.200;9.242;2023-07-31T00:10:40;2.80;;;2.00;;
7255;SDS011;3669;49.200;9.242;2023-07-31T00:13:07;3.15;;;2.00;;
7255;SDS011;3669;49.200;9.242;2023-07-31T00:15:35;3.10;;;1.85;;
7255;SDS011;3669;49.200;9.242;2023-07-31T00:18:02;3.33;;;1.95;;
7255;SDS011;3669;49.200;9.242;2023-07-31T00:20:29;3.88;;;2.10;;
7255;SDS011;3669;49.200;9.242;2023-07-31T00:22:56;2.83;;;2.00;;
7255;SDS011;3669;49.200;9.242;2023-07-31T00:25:23;3.40;;;2.10;;
7255;SDS011;3669;49.200;9.242;2023-07-31T00:27:50;3.33;;;2.00;;
7255;SDS011;3669;49.200;9.242;2023-07-31T00:30:17;3.70;;;2.05;;
7255;SDS011;3669;49.200;9.242;2023-07-31T00:32:44;3.10;;;1.90;;
7255;SDS011;3669;49.200;9.242;2023-07-31T00:35:11;3.97;;;1.77;;
7255;SDS011;3669;49.200;9.242;2023-07-31T00:37:40;3.42;;;2.10;;
7255;SDS011;3669;49.200;9.242;2023-07-31T00:40:07;3.38;;;1.90;;
7255;SDS011;3669;49.200;9.242;2023-07-31T00:42:34;2.88;;;1.83;;
7255;SDS011;3669;49.200;9.242;2023-07-31T00:45:01;2.97;;;1.83;;
7255;SDS011;3669;49.200;9.242;2023-07-31T00:47:28;5.63;;;2.40;;
7255;SDS011;3669;49.200;9.242;2023-07-31T00:49:55;2.97;;;1.90;;
7255;SDS011;3669;49.200;9.242;2023-07-31T00:52:23;6.82;;;2.28;;
7255;SDS011;3669;49.200;9.242;2023-07-31T00:54:50;3.45;;;1.85;;
7255;SDS011;3669;49.200;9.242;2023-07-31T00:57:17;16.63;;;15.32;;
7255;SDS011;3669;49.200;9.242;2023-07-31T00:59:44;3.28;;;1.95;;
7255;SDS011;3669;49.200;9.242;2023-07-31T01:02:12;4.57;;;4.18;;
7255;SDS011;3669;49.200;9.242;2023-07-31T01:04:39;14.40;;;13.60;;
7255;SDS011;3669;49.200;9.242;2023-07-31T01:12:18;45.35;;;42.78;;
7255;SDS011;3669;49.200;9.242;2023-07-31T01:17:32;5.18;;;4.38;;
7255;SDS011;3669;49.200;9.242;2023-07-31T01:20:01;18.33;;;17.20;;
7255;SDS011;3669;49.200;9.242;2023-07-31T01:25:12;3.28;;;2.00;;
7255;SDS011;3669;49.200;9.242;2023-07-31T01:27:49;3.00;;;1.92;;
7255;SDS011;3669;49.200;9.242;2023-07-31T01:30:21;3.67;;;2.05;;
7255;SDS011;3669;49.200;9.242;2023-07-31T01:32:49;3.55;;;2.00;;
7255;SDS011;3669;49.200;9.242;2023-07-31T01:35:16;2.78;;;1.65;;
7255;SDS011;3669;49.200;9.242;2023-07-31T01:37:45;2.63;;;2.00;;
7255;SDS011;3669;49.200;9.242;2023-07-31T01:40:12;3.47;;;2.20;;
7255;SDS011;3669;49.200;9.242;2023-07-31T01:42:39;3.05;;;2.05;;
7255;SDS011;3669;49.200;9.242;2023-07-31T01:45:06;3.42;;;2.17;;
7255;SDS011;3669;49.200;9.242;2023-07-31T01:47:33;2.45;;;1.80;;
7255;SDS011;3669;49.200;9.242;2023-07-31T01:50:00;3.58;;;2.00;;
7255;SDS011;3669;49.200;9.242;2023-07-31T01:52:28;2.55;;;1.80;;
7255;SDS011;3669;49.200;9.242;2023-07-31T01:54:55;2.17;;;1.98;;
7255;SDS011;3669;49.200;9.242;2023-07-31T01:57:22;4.10;;;2.08;;
7255;SDS011;3669;49.200;9.242;2023-07-31T01:59:50;2.75;;;2.03;;
7255;SDS011;3669;49.200;9.242;2023-07-31T02:02:19;3.78;;;2.22;;
7255;SDS011;3669;49.200;9.242;2023-07-31T02:04:46;2.65;;;1.90;;
7255;SDS011;3669;49.200;9.242;2023-07-31T02:07:14;5.40;;;2.42;;
7255;SDS011;3669;49.200;9.242;2023-07-31T02:09:41;2.90;;;2.17;;
7255;SDS011;3669;49.200;9.242;2023-07-31T02:12:08;3.22;;;2.10;;
7255;SDS011;3669;49.200;9.242;2023-07-31T02:14:35;3.45;;;2.00;;
7255;SDS011;3669;49.200;9.242;2023-07-31T02:17:02;3.10;;;2.10;;
7255;SDS011;3669;49.200;9.242;2023-07-31T02:19:30;3.13;;;2.08;;
7255;SDS011;3669;49.200;9.242;2023-07-31T02:21:57;2.95;;;2.25;;
7255;SDS011;3669;49.200;9.242;2023-07-31T02:24:24;3.90;;;1.98;;
7255;SDS011;3669;49.200;9.242;2023-07-31T02:26:51;2.00;;;1.80;;
7255;SDS011;3669;49.200;9.242;2023-07-31T02:29:18;3.15;;;2.33;;
7255;SDS011;3669;49.200;9.242;2023-07-31T02:31:45;3.63;;;2.05;;
7255;SDS011;3669;49.200;9.242;2023-07-31T02:34:12;5.82;;;2.10;;
7255;SDS011;3669;49.200;9.242;2023-07-31T02:36:39;4.20;;;2.03;;
7255;SDS011;3669;49.200;9.242;2023-07-31T02:39:06;3.15;;;2.20;;
7255;SDS011;3669;49.200;9.242;2023-07-31T02:41:33;4.00;;;2.28;;
7255;SDS011;3669;49.200;9.242;2023-07-31T02:44:00;3.10;;;2.10;;
7255;SDS011;3669;49.200;9.242;2023-07-31T02:46:28;2.92;;;1.98;;
7255;SDS011;3669;49.200;9.242;2023-07-31T02:48:55;3.85;;;2.30;;
7255;SDS011;3669;49.200;9.242;2023-07-31T02:51:22;3.38;;;2.15;;
7255;SDS011;3669;49.200;9.242;2023-07-31T02:53:49;3.53;;;2.15;;
7255;SDS011;3669;49.200;9.242;2023-07-31T02:56:16;3.15;;;2.20;;
7255;SDS011;3669;49.200;9.242;2023-07-31T02:58:43;3.00;;;2.03;;
7255;SDS011;3669;49.200;9.242;2023-07-31T03:01:10;3.90;;;2.17;;
7255;SDS011;3669;49.200;9.242;2023-07-31T03:03:37;5.50;;;3.00;;
7255;SDS011;3669;49.200;9.242;2023-07-31T03:06:04;13.32;;;12.60;;
7255;SDS011;3669;49.200;9.242;2023-07-31T03:08:31;22.50;;;21.02;;
7255;SDS011;3669;49.200;9.242;2023-07-31T03:10:59;25.00;;;23.50;;
7255;SDS011;3669;49.200;9.242;2023-07-31T03:13:26;29.45;;;27.85;;
7255;SDS011;3669;49.200;9.242;2023-07-31T03:15:53;25.58;;;24.08;;
7255;SDS011;3669;49.200;9.242;2023-07-31T03:18:20;16.23;;;15.40;;
7255;SDS011;3669;49.200;9.242;2023-07-31T03:20:47;10.85;;;10.18;;
7255;SDS011;3669;49.200;9.242;2023-07-31T03:23:13;4.40;;;2.60;;
7255;SDS011;3669;49.200;9.242;2023-07-31T03:25:41;4.07;;;2.28;;
7255;SDS011;3669;49.200;9.242;2023-07-31T03:28:23;3.90;;;2.35;;
7255;SDS011;3669;49.200;9.242;2023-07-31T03:30:53;3.65;;;2.00;;
7255;SDS011;3669;49.200;9.242;2023-07-31T03:33:20;3.70;;;2.40;;
7255;SDS011;3669;49.200;9.242;2023-07-31T03:35:47;5.00;;;2.35;;
7255;SDS011;3669;49.200;9.242;2023-07-31T03:38:15;3.17;;;2.20;;
7255;SDS011;3669;49.200;9.242;2023-07-31T03:40:42;3.08;;;2.10;;
7255;SDS011;3669;49.200;9.242;2023-07-31T03:43:09;2.90;;;2.10;;
7255;SDS011;3669;49.200;9.242;2023-07-31T03:45:36;3.97;;;2.60;;
7255;SDS011;3669;49.200;9.242;2023-07-31T03:48:03;3.78;;;2.10;;
7255;SDS011;3669;49.200;9.242;2023-07-31T03:50:30;2.42;;;2.20;;
7255;SDS011;3669;49.200;9.242;2023-07-31T03:52:58;3.85;;;2.20;;
7255;SDS011;3669;49.200;9.242;2023-07-31T03:55:25;10.50;;;9.88;;
7255;SDS011;3669;49.200;9.242;2023-07-31T03:57:52;2.53;;;2.20;;
7255;SDS011;3669;49.200;9.242;2023-07-31T04:00:19;5.65;;;2.85;;
7255;SDS011;3669;49.200;9.242;2023-07-31T04:02:48;3.42;;;2.20;;
7255;SDS011;3669;49.200;9.242;2023-07-31T04:05:15;3.45;;;2.33;;
7255;SDS011;3669;49.200;9.242;2023-07-31T04:07:42;3.83;;;2.42;;
7255;SDS011;3669;49.200;9.242;2023-07-31T04:10:09;3.13;;;2.17;;
7255;SDS011;3669;49.200;9.242;2023-07-31T04:12:36;4.88;;;2.40;;
7255;SDS011;3669;49.200;9.242;2023-07-31T04:15:03;2.75;;;2.30;;
7255;SDS011;3669;49.200;9.242;2023-07-31T04:17:30;4.32;;;2.30;;
7255;SDS011;3669;49.200;9.242;2023-07-31T04:19:58;4.03;;;2.40;;
7255;SDS011;3669;49.200;9.242;2023-07-31T04:22:25;2.35;;;2.15;;
7255;SDS011;3669;49.200;9.242;2023-07-31T04:24:52;3.47;;;2.20;;
7255;SDS011;3669;49.200;9.242;2023-07-31T04:27:19;3.78;;;2.17;;
7255;SDS011;3669;49.200;9.242;2023-07-31T04:29:46;5.28;;;2.30;;
7255;SDS011;3669;49.200;9.242;2023-07-31T04:32:13;2.08;;;1.88;;
7255;SDS011;3669;49.200;9.242;2023-07-31T04:34:45;4.47;;;2.28;;
7255;SDS011;3669;49.200;9.242;2023-07-31T04:37:13;3.45;;;2.33;;
7255;SDS011;3669;49.200;9.242;2023-07-31T04:39:40;2.85;;;2.17;;
7255;SDS011;3669;49.200;9.242;2023-07-31T04:42:07;3.25;;;2.58;;
7255;SDS011;3669;49.200;9.242;2023-07-31T04:44:35;3.50;;;2.42;;
7255;SDS011;3669;49.200;9.242;2023-07-31T04:47:02;3.78;;;2.25;;
7255;SDS011;3669;49.200;9.242;2023-07-31T04:49:29;3.42;;;2.10;;
7255;SDS011;3669;49.200;9.242;2023-07-31T04:51:56;3.95;;;2.00;;
7255;SDS011;3669;49.200;9.242;2023-07-31T04:54:23;3.00;;;1.80;;
7255;SDS011;3669;49.200;9.242;2023-07-31T04:56:50;4.22;;;2.22;;
7255;SDS011;3669;49.200;9.242;2023-07-31T04:59:18;4.13;;;2.38;;
7255;SDS011;3669;49.200;9.242;2023-07-31T05:01:45;5.00;;;2.65;;
7255;SDS011;3669;49.200;9.242;2023-07-31T05:04:13;3.83;;;2.15;;
7255;SDS011;3669;49.200;9.242;2023-07-31T05:06:40;3.08;;;2.28;;
7255;SDS011;3669;49.200;9.242;2023-07-31T05:09:07;3.78;;;2.60;;
7255;SDS011;3669;49.200;9.242;2023-07-31T05:11:38;3.38;;;2.30;;
7255;SDS011;3669;49.200;9.242;2023-07-31T05:14:06;4.22;;;2.15;;
7255;SDS011;3669;49.200;9.242;2023-07-31T05:16:33;3.30;;;2.38;;
7255;SDS011;3669;49.200;9.242;2023-07-31T05:19:00;3.20;;;2.17;;
7255;SDS011;3669;49.200;9.242;2023-07-31T05:21:27;4.10;;;2.08;;
7255;SDS011;3669;49.200;9.242;2023-07-31T05:23:54;7.40;;;6.90;;
7255;SDS011;3669;49.200;9.242;2023-07-31T05:26:21;23.58;;;22.17;;
7255;SDS011;3669;49.200;9.242;2023-07-31T05:28:48;30.27;;;28.50;;
7255;SDS011;3669;49.200;9.242;2023-07-31T05:31:15;27.85;;;26.23;;
7255;SDS011;3669;49.200;9.242;2023-07-31T05:33:42;10.95;;;10.27;;
7255;SDS011;3669;49.200;9.242;2023-07-31T05:36:09;5.88;;;5.20;;
7255;SDS011;3669;49.200;9.242;2023-07-31T05:38:35;3.08;;;2.28;;
7255;SDS011;3669;49.200;9.242;2023-07-31T05:41:04;3.35;;;2.10;;
7255;SDS011;3669;49.200;9.242;2023-07-31T05:43:31;4.50;;;2.58;;
7255;SDS011;3669;49.200;9.242;2023-07-31T05:45:58;3.28;;;2.45;;
7255;SDS011;3669;49.200;9.242;2023-07-31T05:48:25;2.78;;;2.50;;
7255;SDS011;3669;49.200;9.242;2023-07-31T05:50:52;4.55;;;2.72;;
7255;SDS011;3669;49.200;9.242;2023-07-31T05:53:20;3.70;;;2.55;;
7255;SDS011;3669;49.200;9.242;2023-07-31T05:55:46;5.18;;;2.60;;
7255;SDS011;3669;49.200;9.242;2023-07-31T05:58:14;3.33;;;2.22;;
7255;SDS011;3669;49.200;9.242;2023-07-31T06:00:41;3.05;;;2.30;;
7255;SDS011;3669;49.200;9.242;2023-07-31T06:03:08;5.43;;;2.25;;
7255;SDS011;3669;49.200;9.242;2023-07-31T06:05:35;4.85;;;2.70;;
7255;SDS011;3669;49.200;9.242;2023-07-31T06:08:02;4.18;;;2.45;;
7255;SDS011;3669;49.200;9.242;2023-07-31T06:10:29;3.75;;;2.70;;
7255;SDS011;3669;49.200;9.242;2023-07-31T06:12:56;2.50;;;2.20;;
7255;SDS011;3669;49.200;9.242;2023-07-31T06:15:23;3.60;;;2.58;;
7255;SDS011;3669;49.200;9.242;2023-07-31T06:17:51;3.35;;;2.17;;
7255;SDS011;3669;49.200;9.242;2023-07-31T06:20:18;4.82;;;2.70;;
7255;SDS011;3669;49.200;9.242;2023-07-31T06:22:45;5.20;;;2.40;;
7255;SDS011;3669;49.200;9.242;2023-07-31T06:25:12;3.25;;;2.40;;
7255;SDS011;3669;49.200;9.242;2023-07-31T06:27:39;4.75;;;2.97;;
7255;SDS011;3669;49.200;9.242;2023-07-31T06:30:06;4.28;;;2.47;;
7255;SDS011;3669;49.200;9.242;2023-07-31T06:32:34;3.72;;;2.40;;
7255;SDS011;3669;49.200;9.242;2023-07-31T06:35:01;4.90;;;2.70;;
7255;SDS011;3669;49.200;9.242;2023-07-31T06:37:28;3.97;;;2.22;;
7255;SDS011;3669;49.200;9.242;2023-07-31T06:39:55;3.80;;;2.50;;
7255;SDS011;3669;49.200;9.242;2023-07-31T06:42:22;4.03;;;2.40;;
7255;SDS011;3669;49.200;9.242;2023-07-31T06:44:50;4.63;;;2.60;;
7255;SDS011;3669;49.200;9.242;2023-07-31T06:47:17;3.28;;;2.53;;
7255;SDS011;3669;49.200;9.242;2023-07-31T06:49:44;5.55;;;2.85;;
7255;SDS011;3669;49.200;9.242;2023-07-31T06:52:11;3.58;;;2.53;;
7255;SDS011;3669;49.200;9.242;2023-07-31T06:54:38;5.45;;;2.85;;
7255;SDS011;3669;49.200;9.242;2023-07-31T06:57:05;4.32;;;2.67;;
7255;SDS011;3669;49.200;9.242;2023-07-31T06:59:32;4.03;;;2.42;;
7255;SDS011;3669;49.200;9.242;2023-07-31T07:01:59;6.10;;;2.78;;
7255;SDS011;3669;49.200;9.242;2023-07-31T07:04:26;4.18;;;2.72;;
7255;SDS011;3669;49.200;9.242;2023-07-31T07:06:53;4.32;;;2.55;;
7255;SDS011;3669;49.200;9.242;2023-07-31T07:09:20;4.68;;;3.03;;
7255;SDS011;3669;49.200;9.242;2023-07-31T07:11:48;5.07;;;2.75;;
7255;SDS011;3669;49.200;9.242;2023-07-31T07:14:15;5.07;;;3.15;;
7255;SDS011;3669;49.200;9.242;2023-07-31T07:16:42;4.78;;;3.10;;
7255;SDS011;3669;49.200;9.242;2023-07-31T07:19:09;5.15;;;2.97;;
7255;SDS011;3669;49.200;9.242;2023-07-31T07:21:36;3.22;;;2.60;;
7255;SDS011;3669;49.200;9.242;2023-07-31T07:24:03;5.15;;;2.83;;
7255;SDS011;3669;49.200;9.242;2023-07-31T07:26:30;5.10;;;2.63;;
7255;SDS011;3669;49.200;9.242;2023-07-31T07:28:56;13.25;;;12.25;;
7255;SDS011;3669;49.200;9.242;2023-07-31T07:31:27;19.58;;;18.05;;
7255;SDS011;3669;49.200;9.242;2023-07-31T07:33:54;18.10;;;16.88;;
7255;SDS011;3669;49.200;9.242;2023-07-31T07:36:21;32.97;;;31.10;;
7255;SDS011;3669;49.200;9.242;2023-07-31T07:38:48;22.65;;;21.10;;
7255;SDS011;3669;49.200;9.242;2023-07-31T07:41:15;21.95;;;20.60;;
7255;SDS011;3669;49.200;9.242;2023-07-31T07:43:41;10.02;;;8.20;;
7255;SDS011;3669;49.200;9.242;2023-07-31T07:46:08;4.32;;;3.00;;
7255;SDS011;3669;49.200;9.242;2023-07-31T07:48:35;8.57;;;3.25;;
7255;SDS011;3669;49.200;9.242;2023-07-31T07:51:02;3.70;;;3.08;;
7255;SDS011;3669;49.200;9.242;2023-07-31T07:53:29;4.15;;;2.97;;
7255;SDS011;3669;49.200;9.242;2023-07-31T07:55:57;5.60;;;2.70;;
7255;SDS011;3669;49.200;9.242;2023-07-31T07:58:24;5.47;;;3.10;;
7255;SDS011;3669;49.200;9.242;2023-07-31T08:00:51;4.50;;;2.92;;
7255;SDS011;3669;49.200;9.242;2023-07-31T08:03:18;3.55;;;2.92;;
7255;SDS011;3669;49.200;9.242;2023-07-31T08:05:45;5.25;;;3.05;;
7255;SDS011;3669;49.200;9.242;2023-07-31T08:08:16;5.45;;;2.88;;
7255;SDS011;3669;49.200;9.242;2023-07-31T08:10:43;3.00;;;2.17;;
7255;SDS011;3669;49.200;9.242;2023-07-31T08:13:11;6.30;;;3.10;;
7255;SDS011;3669;49.200;9.242;2023-07-31T08:15:40;5.13;;;3.22;;
7255;SDS011;3669;49.200;9.242;2023-07-31T08:18:08;4.82;;;3.33;;
7255;SDS011;3669;49.200;9.242;2023-07-31T08:20:37;5.70;;;2.97;;
7255;SDS011;3669;49.200;9.242;2023-07-31T08:23:04;5.32;;;2.80;;
7255;SDS011;3669;49.200;9.242;2023-07-31T08:25:34;4.38;;;2.72;;
7255;SDS011;3669;49.200;9.242;2023-07-31T08:28:02;5.93;;;3.10;;
7255;SDS011;3669;49.200;9.242;2023-07-31T08:30:29;4.93;;;2.97;;
7255;SDS011;3669;49.200;9.242;2023-07-31T08:32:56;5.70;;;3.17;;
7255;SDS011;3669;49.200;9.242;2023-07-31T08:35:24;5.97;;;2.67;;
7255;SDS011;3669;49.200;9.242;2023-07-31T08:37:51;4.43;;;3.00;;
7255;SDS011;3669;49.200;9.242;2023-07-31T08:40:18;4.70;;;2.53;;
7255;SDS011;3669;49.200;9.242;2023-07-31T08:42:47;4.18;;;2.88;;
7255;SDS011;3669;49.200;9.242;2023-07-31T08:45:17;3.50;;;2.53;;
7255;SDS011;3669;49.200;9.242;2023-07-31T08:47:49;6.82;;;3.03;;
7255;SDS011;3669;49.200;9.242;2023-07-31T08:50:17;5.22;;;2.90;;
7255;SDS011;3669;49.200;9.242;2023-07-31T08:52:45;4.78;;;2.70;;
7255;SDS011;3669;49.200;9.242;2023-07-31T08:55:13;4.57;;;3.03;;
7255;SDS011;3669;49.200;9.242;2023-07-31T08:57:40;6.40;;;3.13;;
7255;SDS011;3669;49.200;9.242;2023-07-31T09:00:08;5.32;;;2.90;;
7255;SDS011;3669;49.200;9.242;2023-07-31T09:02:47;5.03;;;2.80;;
7255;SDS011;3669;49.200;9.242;2023-07-31T09:05:15;3.85;;;2.60;;
7255;SDS011;3669;49.200;9.242;2023-07-31T09:07:43;3.30;;;2.70;;
7255;SDS011;3669;49.200;9.242;2023-07-31T09:10:13;5.43;;;2.88;;
7255;SDS011;3669;49.200;9.242;2023-07-31T09:12:40;4.15;;;2.78;;
7255;SDS011;3669;49.200;9.242;2023-07-31T09:15:07;5.25;;;3.25;;
7255;SDS011;3669;49.200;9.242;2023-07-31T09:17:37;2.97;;;2.60;;
7255;SDS011;3669;49.200;9.242;2023-07-31T09:22:48;3.67;;;2.90;;
7255;SDS011;3669;49.200;9.242;2023-07-31T09:25:23;6.00;;;3.03;;
7255;SDS011;3669;49.200;9.242;2023-07-31T09:27:51;4.38;;;2.78;;
7255;SDS011;3669;49.200;9.242;2023-07-31T09:30:18;4.55;;;2.88;;
7255;SDS011;3669;49.200;9.242;2023-07-31T09:32:45;4.75;;;3.20;;
7255;SDS011;3669;49.200;9.242;2023-07-31T09:35:30;6.32;;;3.40;;
7255;SDS011;3669;49.200;9.242;2023-07-31T09:37:58;4.18;;;3.10;;
7255;SDS011;3669;49.200;9.242;2023-07-31T09:40:29;6.10;;;3.00;;
7255;SDS011;3669;49.200;9.242;2023-07-31T09:43:01;6.05;;;3.20;;
7255;SDS011;3669;49.200;9.242;2023-07-31T09:45:28;5.93;;;3.30;;
7255;SDS011;3669;49.200;9.242;2023-07-31T09:47:56;5.47;;;3.13;;
7255;SDS011;3669;49.200;9.242;2023-07-31T09:50:23;7.35;;;3.38;;
7255;SDS011;3669;49.200;9.242;2023-07-31T09:52:51;4.32;;;2.70;;
7255;SDS011;3669;49.200;9.242;2023-07-31T09:55:18;5.57;;;3.53;;
7255;SDS011;3669;49.200;9.242;2023-07-31T09:57:46;13.13;;;12.20;;
7255;SDS011;3669;49.200;9.242;2023-07-31T10:00:17;23.70;;;22.02;;
7255;SDS011;3669;49.200;9.242;2023-07-31T10:02:47;26.00;;;24.42;;
7255;SDS011;3669;49.200;9.242;2023-07-31T10:05:15;34.75;;;32.90;;
7255;SDS011;3669;49.200;9.242;2023-07-31T10:07:53;31.90;;;30.08;;
7255;SDS011;3669;49.200;9.242;2023-07-31T10:10:21;22.02;;;20.55;;
7255;SDS011;3669;49.200;9.242;2023-07-31T10:12:49;33.78;;;31.92;;
7255;SDS011;3669;49.200;9.242;2023-07-31T10:15:16;31.10;;;29.35;;
7255;SDS011;3669;49.200;9.242;2023-07-31T10:17:43;20.85;;;19.67;;
7255;SDS011;3669;49.200;9.242;2023-07-31T10:20:10;10.05;;;9.18;;
7255;SDS011;3669;49.200;9.242;2023-07-31T10:22:37;6.20;;;3.00;;
7255;SDS011;3669;49.200;9.242;2023-07-31T10:25:05;4.68;;;3.15;;
7255;SDS011;3669;49.200;9.242;2023-07-31T10:27:38;5.78;;;3.25;;
7255;SDS011;3669;49.200;9.242;2023-07-31T10:30:06;5.57;;;3.28;;
7255;SDS011;3669;49.200;9.242;2023-07-31T10:32:34;5.68;;;3.20;;
7255;SDS011;3669;49.200;9.242;2023-07-31T10:35:03;6.20;;;3.10;;
7255;SDS011;3669;49.200;9.242;2023-07-31T10:37:40;4.30;;;3.20;;
7255;SDS011;3669;49.200;9.242;2023-07-31T10:40:19;4.80;;;3.30;;
7255;SDS011;3669;49.200;9.242;2023-07-31T10:42:52;5.32;;;3.22;;
7255;SDS011;3669;49.200;9.242;2023-07-31T10:45:32;4.57;;;2.92;;
7255;SDS011;3669;49.200;9.242;2023-07-31T10:48:02;6.55;;;3.05;;
7255;SDS011;3669;49.200;9.242;2023-07-31T10:50:30;5.72;;;3.10;;
7255;SDS011;3669;49.200;9.242;2023-07-31T10:53:01;4.93;;;3.40;;
7255;SDS011;3669;49.200;9.242;2023-07-31T10:55:39;8.20;;;6.88;;
7255;SDS011;3669;49.200;9.242;2023-07-31T10:58:11;5.97;;;3.35;;
7255;SDS011;3669;49.200;9.242;2023-07-31T11:00:39;4.97;;;3.20;;
7255;SDS011;3669;49.200;9.242;2023-07-31T11:03:07;4.68;;;3.28;;
7255;SDS011;3669;49.200;9.242;2023-07-31T11:08:23;6.18;;;3.42;;
7255;SDS011;3669;49.200;9.242;2023-07-31T11:10:51;5.85;;;3.53;;
7255;SDS011;3669;49.200;9.242;2023-07-31T11:13:32;5.50;;;3.15;;
7255;SDS011;3669;49.200;9.242;2023-07-31T11:16:00;5.63;;;3.30;;
7255;SDS011;3669;49.200;9.242;2023-07-31T11:18:27;5.10;;;3.05;;
7255;SDS011;3669;49.200;9.242;2023-07-31T11:20:54;4.45;;;3.75;;
7255;SDS011;3669;49.200;9.242;2023-07-31T11:23:22;5.25;;;2.97;;
7255;SDS011;3669;49.200;9.242;2023-07-31T11:25:49;5.43;;;3.50;;
7255;SDS011;3669;49.200;9.242;2023-07-31T11:28:17;4.32;;;3.13;;
7255;SDS011;3669;49.200;9.242;2023-07-31T11:30:45;7.07;;;3.58;;
7255;SDS011;3669;49.200;9.242;2023-07-31T11:33:12;6.35;;;3.45;;
7255;SDS011;3669;49.200;9.242;2023-07-31T11:35:46;3.95;;;3.17;;
7255;SDS011;3669;49.200;9.242;2023-07-31T11:40:54;5.25;;;3.58;;
7255;SDS011;3669;49.200;9.242;2023-07-31T11:43:21;5.38;;;3.50;;
7255;SDS011;3669;49.200;9.242;2023-07-31T11:45:50;6.35;;;3.60;;
7255;SDS011;3669;49.200;9.242;2023-07-31T11:48:27;8.27;;;3.40;;
7255;SDS011;3669;49.200;9.242;2023-07-31T11:50:58;4.78;;;3.30;;
7255;SDS011;3669;49.200;9.242;2023-07-31T11:53:33;4.28;;;3.25;;
7255;SDS011;3669;49.200;9.242;2023-07-31T11:56:02;6.18;;;3.30;;
7255;SDS011;3669;49.200;9.242;2023-07-31T11:58:30;6.65;;;3.60;;
7255;SDS011;3669;49.200;9.242;2023-07-31T12:00:58;4.13;;;3.30;;
7255;SDS011;3669;49.200;9.242;2023-07-31T12:03:31;5.82;;;3.58;;
7255;SDS011;3669;49.200;9.242;2023-07-31T12:05:59;6.65;;;3.17;;
7255;SDS011;3669;49.200;9.242;2023-07-31T12:08:26;4.70;;;3.30;;
7255;SDS011;3669;49.200;9.242;2023-07-31T12:10:53;5.40;;;2.85;;
7255;SDS011;3669;49.200;9.242;2023-07-31T12:13:21;6.00;;;3.05;;
7255;SDS011;3669;49.200;9.242;2023-07-31T12:15:49;6.45;;;3.30;;
7255;SDS011;3669;49.200;9.242;2023-07-31T12:18:21;4.95;;;2.97;;
7255;SDS011;3669;49.200;9.242;2023-07-31T12:20:49;4.15;;;2.85;;
7255;SDS011;3669;49.200;9.242;2023-07-31T12:23:21;5.97;;;3.22;;
7255;SDS011;3669;49.200;9.242;2023-07-31T12:26:02;4.07;;;3.00;;
7255;SDS011;3669;49.200;9.242;2023-07-31T12:28:30;6.63;;;3.28;;
7255;SDS011;3669;49.200;9.242;2023-07-31T12:30:57;4.93;;;3.10;;
7255;SDS011;3669;49.200;9.242;2023-07-31T12:33:30;5.40;;;3.55;;
7255;SDS011;3669;49.200;9.242;2023-07-31T12:36:00;5.22;;;3.40;;
7255;SDS011;3669;49.200;9.242;2023-07-31T12:38:27;6.18;;;3.50;;
7255;SDS011;3669;49.200;9.242;2023-07-31T12:40:54;4.80;;;3.08;;
7255;SDS011;3669;49.200;9.242;2023-07-31T12:43:21;5.30;;;3.33;;
7255;SDS011;3669;49.200;9.242;2023-07-31T12:45:49;5.78;;;2.95;;
7255;SDS011;3669;49.200;9.242;2023-07-31T12:48:16;4.47;;;3.00;;
7255;SDS011;3669;49.200;9.242;2023-07-31T12:50:43;4.28;;;3.10;;
7255;SDS011;3669;49.200;9.242;2023-07-31T12:53:10;4.78;;;2.97;;
7255;SDS011;3669;49.200;9.242;2023-07-31T12:55:37;14.15;;;13.10;;
7255;SDS011;3669;49.200;9.242;2023-07-31T12:58:04;5.68;;;3.30;;
7255;SDS011;3669;49.200;9.242;2023-07-31T13:00:31;5.70;;;3.20;;
7255;SDS011;3669;49.200;9.242;2023-07-31T13:02:58;10.80;;;10.02;;
7255;SDS011;3669;49.200;9.242;2023-07-31T13:05:28;17.77;;;16.48;;
7255;SDS011;3669;49.200;9.242;2023-07-31T13:07:55;14.95;;;13.95;;
7255;SDS011;3669;49.200;9.242;2023-07-31T13:10:23;21.95;;;20.58;;
7255;SDS011;3669;49.200;9.242;2023-07-31T13:12:52;21.73;;;20.42;;
7255;SDS011;3669;49.200;9.242;2023-07-31T13:15:19;23.02;;;21.58;;
7255;SDS011;3669;49.200;9.242;2023-07-31T13:17:46;29.48;;;27.92;;
7255;SDS011;3669;49.200;9.242;2023-07-31T13:20:13;24.50;;;23.02;;
7255;SDS011;3669;49.200;9.242;2023-07-31T13:22:40;10.30;;;9.55;;
7255;SDS011;3669;49.200;9.242;2023-07-31T13:25:07;7.68;;;5.93;;
7255;SDS011;3669;49.200;9.242;2023-07-31T13:27:34;5.30;;;3.10;;
7255;SDS011;3669;49.200;9.242;2023-07-31T13:30:01;7.40;;;3.15;;
7255;SDS011;3669;49.200;9.242;2023-07-31T13:32:29;3.33;;;2.80;;
7255;SDS011;3669;49.200;9.242;2023-07-31T13:34:56;4.72;;;3.10;;
7255;SDS011;3669;49.200;9.242;2023-07-31T13:37:23;5.60;;;2.80;;
7255;SDS011;3669;49.200;9.242;2023-07-31T13:39:50;4.88;;;3.10;;
7255;SDS011;3669;49.200;9.242;2023-07-31T13:42:17;5.70;;;3.13;;
7255;SDS011;3669;49.200;9.242;2023-07-31T13:44:44;7.22;;;3.35;;
7255;SDS011;3669;49.200;9.242;2023-07-31T13:47:11;4.45;;;3.15;;
7255;SDS011;3669;49.200;9.242;2023-07-31T13:49:38;3.95;;;3.00;;
7255;SDS011;3669;49.200;9.242;2023-07-31T13:52:06;4.72;;;3.05;;
7255;SDS011;3669;49.200;9.242;2023-07-31T13:54:33;8.52;;;3.50;;
7255;SDS011;3669;49.200;9.242;2023-07-31T13:57:00;5.65;;;3.20;;
7255;SDS011;3669;49.200;9.242;2023-07-31T13:59:27;5.10;;;2.95;;
7255;SDS011;3669;49.200;9.242;2023-07-31T14:01:54;6.20;;;3.10;;
7255;SDS011;3669;49.200;9.242;2023-07-31T14:04:21;5.53;;;3.05;;
7255;SDS011;3669;49.200;9.242;2023-07-31T14:06:48;4.85;;;3.00;;
7255;SDS011;3669;49.200;9.242;2023-07-31T14:09:16;6.07;;;3.50;;
7255;SDS011;3669;49.200;9.242;2023-07-31T14:11:43;6.38;;;3.58;;
7255;SDS011;3669;49.200;9.242;2023-07-31T14:14:10;4.75;;;3.10;;
7255;SDS011;3669;49.200;9.242;2023-07-31T14:16:38;4.40;;;3.03;;
7255;SDS011;3669;49.200;9.242;2023-07-31T14:19:05;3.17;;;2.78;;
7255;SDS011;3669;49.200;9.242;2023-07-31T14:21:34;5.38;;;3.10;;
7255;SDS011;3669;49.200;9.242;2023-07-31T14:24:01;4.15;;;2.78;;
7255;SDS011;3669;49.200;9.242;2023-07-31T14:26:28;4.70;;;3.20;;
7255;SDS011;3669;49.200;9.242;2023-07-31T14:28:55;3.42;;;2.80;;
7255;SDS011;3669;49.200;9.242;2023-07-31T14:31:22;4.15;;;3.10;;
7255;SDS011;3669;49.200;9.242;2023-07-31T14:33:49;4.45;;;2.85;;
7255;SDS011;3669;49.200;9.242;2023-07-31T14:36:16;5.57;;;2.65;;
7255;SDS011;3669;49.200;9.242;2023-07-31T14:38:43;4.80;;;3.20;;
7255;SDS011;3669;49.200;9.242;2023-07-31T14:41:10;5.45;;;3.20;;
7255;SDS011;3669;49.200;9.242;2023-07-31T14:43:38;6.25;;;3.10;;
7255;SDS011;3669;49.200;9.242;2023-07-31T14:46:05;5.00;;;3.03;;
7255;SDS011;3669;49.200;9.242;2023-07-31T14:48:32;4.13;;;2.95;;
7255;SDS011;3669;49.200;9.242;2023-07-31T14:50:59;4.63;;;2.92;;
7255;SDS011;3669;49.200;9.242;2023-07-31T14:53:26;3.90;;;2.97;;
7255;SDS011;3669;49.200;9.242;2023-07-31T14:55:53;5.38;;;3.05;;
7255;SDS011;3669;49.200;9.242;2023-07-31T14:58:21;3.17;;;2.40;;
7255;SDS011;3669;49.200;9.242;2023-07-31T15:00:49;4.20;;;2.80;;
7255;SDS011;3669;49.200;9.242;2023-07-31T15:03:16;5.00;;;3.15;;
7255;SDS011;3669;49.200;9.242;2023-07-31T15:05:43;4.85;;;3.03;;
7255;SDS011;3669;49.200;9.242;2023-07-31T15:08:10;5.85;;;2.83;;
7255;SDS011;3669;49.200;9.242;2023-07-31T15:10:37;3.92;;;2.92;;
7255;SDS011;3669;49.200;9.242;2023-07-31T15:13:04;4.30;;;2.72;;
7255;SDS011;3669;49.200;9.242;2023-07-31T15:15:31;14.38;;;13.32;;
7255;SDS011;3669;49.200;9.242;2023-07-31T15:17:58;27.80;;;25.95;;
7255;SDS011;3669;49.200;9.242;2023-07-31T15:20:25;29.90;;;28.17;;
7255;SDS011;3669;49.200;9.242;2023-07-31T15:22:52;24.95;;;23.35;;
7255;SDS011;3669;49.200;9.242;2023-07-31T15:25:19;15.88;;;15.00;;
7255;SDS011;3669;49.200;9.242;2023-07-31T15:27:46;10.65;;;9.88;;
7255;SDS011;3669;49.200;9.242;2023-07-31T15:30:12;7.00;;;5.07;;
7255;SDS011;3669;49.200;9.242;2023-07-31T15:32:39;5.20;;;3.28;;
7255;SDS011;3669;49.200;9.242;2023-07-31T15:35:06;5.75;;;2.58;;